Terminal Aerodrome Forecast
Issued by NWS Quad Cities IA IL

Home | Current Version | Previous Version | Text Only | Print | Product List | Glossary On
Versions: 1 2 3 4 5 6 7 8 9 10 11 12 13 14 15 16 17 18 19 20 21 22 23 24 25 26 27 28 29 30 31 32 33 34
000
FTUS43 KDVN 252000 AAD
TAFDBQ
TAF AMD
KDBQ 252059Z 2521/2618 17011KT P6SM BKN018
     FM252300 18011KT P6SM SCT020
     FM260200 14006KT P6SM SCT030
     FM260900 17005KT 4SM BR BKN060
     FM261100 20005KT 4SM BR BKN060
     FM261500 31005KT P6SM BKN060=

USA.gov is the U.S. government's official web portal to all federal, state and local government web resources and services.